Raton, NM

2:05 AM MDT on August 25, 2016 (GMT -0600)
Raton Municipal-Crews | | Change Station

Elev 6352 ft 36.74 °N, 104.50 °W | Updated 12 minutes ago

Scattered Clouds
Scattered Clouds
54 °F
Feels Like 54 °F
N
7
Wind Variable Wind from NNW

Today
High -- | Low -- °F
--% Chance of Precip.
Yesterday
High -- | Low -- °F
Precip. -- in
Pressure 30.05 in
Visibility 10.0 miles
Clouds Scattered Clouds 11000 ft
Dew Point 47 °F
Humidity 77%
Rainfall 0.00 in
Snow Depth Not available.
6:23 AM 7:35 PM
Waning Gibbous, 48% visible
METAR KRTN 250753Z AUTO 33006KT 10SM SCT110 12/08 A3028 RMK AO2 SLP176 T01220083
Pressure 30.05 in
Visibility 10.0 miles
Clouds Scattered Clouds 11000 ft
Dew Point 47 °F
Humidity 77%
Rainfall 0.00 in
Snow Depth Not available.
6:23 AM 7:35 PM
Waning Gibbous, 48% visible
METAR KRTN 250753Z AUTO 33006KT 10SM SCT110 12/08 A3028 RMK AO2 SLP176 T01220083

10-Day Weather Forecast

Almanac

Astronomy

Aug. 25, 2016 Rise Set
Actual Time
Civil Twilight
Nautical Twilight
Astronomical Twilight
Moon
Length of Visible Light
Length of Day
Tomorrow will be .
, % of the Moon is Illuminated

Today's Extremes

State Highs State Lows

Community

WunderPhotos

Upload Photos

1,934,814 photos uploaded!

WunderBlog® & News

Nearby

Air Quality

  Air Quality AQ Index Pollutant
Not available.

Snow Depth

Station Depth Elevation

Earthquake Activity

City Distance Mag. Time & Date
Minimum magnitude displayed is 2.5.

Coastal Water Temperatures

Place Temperature

Stations

Nearby Weather Stations

Station Location Temp. Windchill Dew Point Humidity Wind Precip. Elev Updated Type
                   

Watches & Warnings

There are currently no watches in effect.